Robert Carter

Olheiro - Rotherham United
30 Set 2027
Quinta-feira
Processo

Personalidade

Adaptabilidade (14) Ambição (15) Controvérsia (1) Lealdade (9) Pressão (19) Profissionalismo (16) Espírito Esportivo (10) Temperamento (1)

Perfil

Estilo de Treinamento Democrático
Licença Nacional A
Determinação 7
Gestão de Pessoas 7
Motivação 3
Disciplina 3
Satisfação no Trabalho
100%
Fadiga
0%
Função Olheiro
Salário 46.4K p/s
Contrato 14.03.2030

Desempenho

Comportamento Bom
Eficácia do Treinamento
38%
Desenvolvimento do Jogador
15%
Prevenção de Lesões
30%
Implementação Tática
35%

Eventos Recentes

Participou de uma reunião de recrutamento agora
Participou de uma reunião de recrutamento 7d atrás
Recomendou um alvo de transferência 7d atrás
Participou de uma reunião de recrutamento 7d atrás
Participou de uma reunião de recrutamento 14d atrás
Recomendou um alvo de transferência 14d atrás
Participou de uma reunião de recrutamento 14d atrás
Participou de uma reunião de recrutamento 21d atrás

Monitorando agora

78
Jogador Clube Status Habilidade Confiança Observado Última observação Último voto
Lewis Brunt Wrexham Ativo 119 / 116 62% 1 06.06.2027 Aprovar
Tom Hamer Lincoln City Ativo 118 / 102 40% 4 30.05.2027 -
Romano Floriani Mussolini Blackpool Ativo 119 / 114 40% 2 30.05.2027 -
Bongani Zungu Ajax Cape Town Ativo 132 / 114 40% 1 27.05.2027 -
Tariq Lamptey Queens Park Rangers Ativo 127 / 137 40% 3 26.05.2027 -
Luke McNally Bristol City Ativo 122 / 135 40% 2 26.05.2027 -
Moussa Baradji Blackburn Rovers Ativo 113 / 107 40% 1 25.05.2027 -
Ethan Galbraith Swansea City Ativo 130 / 129 40% 3 24.05.2027 -
Alfie Gilchrist West Bromwich Albion Ativo 133 / 142 40% 2 24.05.2027 -
James Furlong Walsall Ativo 106 / 97 40% 1 24.05.2027 -
Joel Bagan Cardiff City Ativo 108 / 120 40% 2 23.05.2027 -
Luca Connell Barnsley Ativo 119 / 97 40% 1 23.05.2027 -
Derry Murkin Derby County Ativo 130 / 117 40% 2 22.05.2027 Mais informações
Edoardo Bove Watford Ativo 135 / 145 40% 5 20.05.2027 -
Terry Devlin Portsmouth Ativo 127 / 124 40% 2 20.05.2027 -
Jack Shepherd Swindon Town Ativo 99 / 121 40% 2 20.05.2027 -
Ethan Pye Stockport County Ativo 123 / 128 40% 2 16.05.2027 -
Harrison Burrows Sheffield United Ativo 132 / 144 40% 1 15.05.2027 -
Nicolas Madsen Queens Park Rangers Ativo 135 / 114 40% 1 15.05.2027 -
Issa Kaboré Wrexham Ativo 139 / 127 40% 4 10.05.2027 -
Koki Saito Queens Park Rangers Ativo 133 / 119 40% 1 08.05.2027 -
Antonio Galeano Remo Stars Ativo 142 / 101 40% 1 07.05.2027 -
Oliver Arblaster Sheffield United Ativo 137 / 135 40% 1 05.05.2027 -
Mandla Kekana Ajax Cape Town Ativo 107 / 131 40% 2 04.05.2027 -
Bradley Zwane SuperSport United Ativo 125 / 126 40% 1 04.05.2027 -
Adam Randell Bristol City Ativo 128 / 133 40% 1 04.05.2027 -
George Earthy Reading Ativo 117 / 109 40% 1 01.05.2027 -
Assane Diao Como Ativo 149 / 142 40% 1 29.04.2027 -
Mohamadou Kanté Crawley Town Ativo 125 / 111 40% 1 29.04.2027 -
Derensili Sanches Fernandes Huddersfield Town Ativo 125 / 108 40% 2 27.04.2027 -
Sam Greenwood Bristol City Ativo 117 / 106 40% 1 27.04.2027 -
Rushwin Dortley Kaizer Chiefs Ativo 119 / 112 40% 2 25.04.2027 -
Harry Clarke Preston Ativo 133 / 113 40% 2 24.04.2027 -
Scott Twine Bristol City Ativo 135 / 128 40% 1 24.04.2027 -
Max Bird Birmingham Ativo 132 / 146 40% 4 23.04.2027 -
Ronaldo Maarman University of Pretoria Ativo 111 / 120 40% 1 22.04.2027 -
Themba Williams Ajax Cape Town Ativo 109 / 100 40% 2 21.04.2027 -
Welington Southampton Ativo 135 / 134 40% 1 21.04.2027 -
Tony Springett Cheltenham Town Perdido 109 / 110 40% 1 20.04.2027 Mais informações
Daniel Kyerewaa Reading Ativo 109 / 124 40% 1 16.04.2027 -
Oliver Skipp Leicester City Ativo 127 / 136 40% 1 16.04.2027 -
Harvey Vale Queens Park Rangers Ativo 122 / 141 40% 1 15.04.2027 -
Myles Peart-Harris Oxford United Ativo 111 / 119 40% 1 14.04.2027 -
Isaac Inusah Wa All Stars Ativo 126 / 98 40% 1 14.04.2027 -
Bosun Lawal Stoke City Ativo 122 / 124 40% 2 13.04.2027 -
Lee Buchanan Sheffield Wednesday Ativo 117 / 137 40% 2 12.04.2027 -
Darlin Yongwa Norwich City Ativo 130 / 113 40% 2 12.04.2027 -
Mohammed Essien Hasaacas Ativo 99 / 122 40% 1 09.04.2027 -
Brendan Wiredu Plymouth Argyle Ativo 115 / 102 40% 1 08.04.2027 -
Jonathan Varane Queens Park Rangers Ativo 136 / 124 40% 1 08.04.2027 -
Milan van Ewijk Coventry City Ativo 141 / 125 40% 2 07.04.2027 -
Pelle Mattsson Norwich City Ativo 129 / 129 40% 1 07.04.2027 -
Nadir Zortea Bologna Ativo 138 / 138 40% 2 31.03.2027 -
Archie Collins Peterborough United Ativo 108 / 104 40% 1 30.03.2027 -
Ramahlwe Jali Platinum Stars Ativo 120 / 82 40% 1 27.03.2027 -
Toby Collyer West Bromwich Albion Ativo 123 / 123 40% 2 23.03.2027 -
Japhet Tanganga Sheffield United Ativo 124 / 128 40% 1 23.03.2027 -
Tyrese Fornah Northampton Town Ativo 113 / 89 40% 1 21.03.2027 -
Bali Mumba Huddersfield Town Ativo 123 / 122 40% 1 21.03.2027 -
Aldair Faustino Levski Ativo 135 / 128 40% 1 19.03.2027 -
Lucas Da Cunha Como Ativo 150 / 140 40% 2 18.03.2027 -
Eli King Gillingham Ativo 112 / 93 40% 1 15.03.2027 -
Brooke Norton-Cuffy Hull City Ativo 147 / 132 40% 1 08.03.2027 -
Dennis Cirkin Queens Park Rangers Ativo 128 / 139 40% 2 06.03.2027 -
Lewis Gibson Preston Ativo 115 / 112 40% 2 06.03.2027 -
Teboho Zwane SuperSport United Ativo 120 / 99 40% 1 05.03.2027 -
Nathan Moriah-Welsh Mansfield Town Ativo 110 / 119 40% 1 05.03.2027 -
Alfie Doughty Millwall Ativo 124 / 138 40% 1 25.02.2027 -
Michael Baidoo Plymouth Argyle Ativo 119 / 126 40% 1 25.02.2027 -
Max Johnston Derby County Ativo 118 / 112 40% 2 22.02.2027 -
Jacques Ekomié Wrexham Ativo 128 / 120 40% 1 22.02.2027 -
Lebogang Manyama SuperSport United Ativo 102 / 92 40% 1 14.02.2027 -
Brodie Spencer Oxford United Ativo 127 / 137 40% 1 13.02.2027 -
Brian De Keersmaecker Oxford United Ativo 115 / 120 40% 1 09.02.2027 -
Ousmane Diakité West Bromwich Albion Ativo 117 / 124 40% 1 08.02.2027 -
Ilja Vakhania Krasnodar Ativo 118 / 142 40% 1 05.02.2027 -
Goodman Mosele Chippa United Ativo 95 / 122 40% 1 02.02.2027 -
Finlay Cartwright Middlesbrough Ativo 84 / 79 58% 1 10.08.2026 -